Time;durP1;ratioP1;P1;durP2;ratioP2;P2;SDS_P1;SDS_P2;PMS_P1;PMS_P2;Temp;Humidity;BMP_temperature;BMP_pressure;BME280_temperature;BME280_humidity;BME280_pressure;Samples;Min_cycle;Max_cycle;Signal;HPM_P1;HPM_P2
2023/09/14 00:00:56;;;;;;;0.40;0.40;;;21.00;99.90;;;;;;7395132;19;20130;-76
2023/09/14 00:03:25;;;;;;;0.10;0.10;;;21.00;99.90;;;;;;7400111;19;20486;-74
2023/09/14 00:05:51;;;;;;;0.40;0.28;;;21.00;99.90;;;;;;7399707;19;20154;-76
2023/09/14 00:08:19;;;;;;;0.30;0.30;;;20.90;99.90;;;;;;7399113;19;20591;-75
2023/09/14 00:10:46;;;;;;;0.20;0.20;;;20.80;99.90;;;;;;7399357;19;20141;-76
2023/09/14 00:13:12;;;;;;;0.38;0.30;;;20.80;99.90;;;;;;7399387;19;20154;-75
2023/09/14 00:15:40;;;;;;;0.40;0.40;;;20.90;99.90;;;;;;7392453;19;20138;-76
2023/09/14 00:18:06;;;;;;;0.20;0.20;;;21.00;99.90;;;;;;7401711;19;20157;-76
2023/09/14 00:20:32;;;;;;;0.10;0.10;;;20.80;99.90;;;;;;7397374;19;20702;-76
2023/09/14 00:22:58;;;;;;;0.43;0.43;;;20.90;99.90;;;;;;7390689;19;20155;-76
2023/09/14 00:25:25;;;;;;;0.30;0.30;;;20.90;99.90;;;;;;7392752;19;20142;-76
2023/09/14 00:27:52;;;;;;;0.73;0.70;;;20.90;99.90;;;;;;7389858;19;20143;-75
2023/09/14 00:30:22;;;;;;;0.32;0.32;;;20.90;99.90;;;;;;7392037;19;20603;-76
2023/09/14 00:32:50;;;;;;;0.20;0.20;;;20.90;99.90;;;;;;7391435;19;20563;-77
2023/09/14 00:35:18;;;;;;;0.40;0.40;;;20.90;99.90;;;;;;7391238;19;20206;-75
2023/09/14 00:37:44;;;;;;;0.35;0.35;;;20.90;99.90;;;;;;7391526;19;20123;-76
2023/09/14 00:40:11;;;;;;;0.32;0.32;;;20.80;99.90;;;;;;7389550;19;20260;-76
2023/09/14 00:42:48;;;;;;;0.20;0.20;;;20.90;99.90;;;;;;7393646;19;20161;-76
2023/09/14 00:45:20;;;;;;;0.20;0.20;;;20.90;99.90;;;;;;7389964;19;20159;-76
2023/09/14 00:47:51;;;;;;;0.73;0.35;;;20.60;99.90;;;;;;7394851;19;20150;-76
2023/09/14 00:50:18;;;;;;;0.20;0.20;;;20.70;99.90;;;;;;7390673;19;20139;-76
2023/09/14 00:52:46;;;;;;;0.40;0.40;;;20.60;99.90;;;;;;7391601;19;20158;-76
2023/09/14 00:55:17;;;;;;;0.28;0.28;;;20.60;99.90;;;;;;7388210;19;20147;-75
2023/09/14 00:57:45;;;;;;;0.20;0.20;;;20.60;99.90;;;;;;7389668;19;20153;-76
2023/09/14 01:00:11;;;;;;;0.20;0.20;;;20.70;99.90;;;;;;7388706;19;20122;-76
2023/09/14 01:02:40;;;;;;;0.32;0.32;;;20.50;99.90;;;;;;7390057;19;20151;-76
2023/09/14 01:05:07;;;;;;;0.22;0.22;;;20.50;99.90;;;;;;7388391;19;20178;-76
2023/09/14 01:07:34;;;;;;;0.32;0.32;;;20.40;99.90;;;;;;7388654;19;20138;-76
2023/09/14 01:10:00;;;;;;;0.20;0.20;;;20.50;99.90;;;;;;7390977;19;20182;-76
2023/09/14 01:12:27;;;;;;;0.43;0.43;;;20.10;99.90;;;;;;7389809;19;20588;-76
2023/09/14 01:15:05;;;;;;;0.20;0.20;;;20.00;99.90;;;;;;7390330;19;20146;-75
2023/09/14 01:17:57;;;;;;;0.20;0.20;;;20.20;99.90;;;;;;7388984;19;20180;-76
2023/09/14 01:21:01;;;;;;;0.30;0.30;;;20.20;99.90;;;;;;7387423;19;20138;-75
2023/09/14 01:23:47;;;;;;;0.30;0.30;;;20.20;99.90;;;;;;7388781;19;20150;-75
2023/09/14 01:26:14;;;;;;;0.28;0.28;;;20.10;99.90;;;;;;7388532;19;20198;-76
2023/09/14 01:28:40;;;;;;;0.70;0.68;;;20.10;99.90;;;;;;7388455;19;20138;-77
2023/09/14 01:31:06;;;;;;;0.90;0.40;;;20.20;99.90;;;;;;7389697;19;20595;-77
2023/09/14 01:33:32;;;;;;;0.40;0.40;;;20.20;99.90;;;;;;7386659;19;20139;-76
2023/09/14 01:36:13;;;;;;;0.20;0.20;;;20.10;99.90;;;;;;7388099;19;20157;-75
2023/09/14 01:38:40;;;;;;;0.50;0.50;;;20.10;99.90;;;;;;7392074;19;20146;-75
2023/09/14 01:41:07;;;;;;;0.22;0.22;;;20.10;99.90;;;;;;7386226;19;21003;-75
2023/09/14 01:43:33;;;;;;;0.30;0.30;;;20.00;99.90;;;;;;7389181;19;20151;-76
2023/09/14 01:46:00;;;;;;;0.55;0.40;;;20.00;99.90;;;;;;7384935;19;20142;-76
2023/09/14 01:48:26;;;;;;;1.02;0.30;;;19.90;99.90;;;;;;7389254;19;20238;-76
2023/09/14 01:50:51;;;;;;;0.20;0.20;;;20.00;99.90;;;;;;7391214;19;20143;-75
2023/09/14 01:53:17;;;;;;;0.20;0.20;;;20.00;99.90;;;;;;7388126;19;20262;-75
2023/09/14 01:55:43;;;;;;;0.70;0.70;;;20.10;99.90;;;;;;7381897;19;20171;-76
2023/09/14 01:58:10;;;;;;;0.25;0.25;;;20.00;99.90;;;;;;7391151;19;20191;-76
2023/09/14 02:00:36;;;;;;;0.43;0.43;;;20.00;99.90;;;;;;7385340;19;20177;-75
2023/09/14 02:03:01;;;;;;;0.20;0.20;;;20.20;99.90;;;;;;7388281;19;20254;-75
2023/09/14 02:05:27;;;;;;;0.28;0.28;;;19.90;99.90;;;;;;7387423;19;20164;-75
2023/09/14 02:07:53;;;;;;;0.32;0.30;;;19.60;99.90;;;;;;7389211;19;20260;-75
2023/09/14 02:10:21;;;;;;;0.25;0.25;;;19.60;99.90;;;;;;7387980;19;20155;-75
2023/09/14 02:12:50;;;;;;;0.20;0.20;;;19.70;99.90;;;;;;7389689;19;20167;-75
2023/09/14 02:15:16;;;;;;;0.40;0.40;;;19.80;99.90;;;;;;7387483;19;20210;-75
2023/09/14 02:17:41;;;;;;;0.35;0.35;;;19.90;99.90;;;;;;7388219;19;20156;-75
2023/09/14 02:20:08;;;;;;;0.40;0.40;;;19.90;99.90;;;;;;7388487;19;20149;-75
2023/09/14 02:22:34;;;;;;;0.28;0.28;;;20.00;99.90;;;;;;7388893;19;20146;-75
2023/09/14 02:25:00;;;;;;;0.20;0.20;;;19.90;99.90;;;;;;7387378;19;20154;-75
2023/09/14 02:27:26;;;;;;;0.47;0.47;;;20.00;99.90;;;;;;7388142;19;20141;-75
2023/09/14 02:29:53;;;;;;;0.20;0.20;;;20.00;99.90;;;;;;7390601;19;20252;-75
2023/09/14 02:32:19;;;;;;;0.40;0.40;;;20.00;99.90;;;;;;7386839;19;20139;-76
2023/09/14 02:34:45;;;;;;;0.30;0.30;;;20.00;99.90;;;;;;7386499;19;20138;-76
2023/09/14 02:37:11;;;;;;;0.50;0.50;;;20.00;99.90;;;;;;7389187;19;20140;-76
2023/09/14 02:39:37;;;;;;;0.50;0.50;;;20.00;99.90;;;;;;7389882;19;20596;-76
2023/09/14 02:42:03;;;;;;;0.13;0.13;;;20.00;99.90;;;;;;7387661;19;20225;-75
2023/09/14 02:44:28;;;;;;;0.35;0.35;;;19.90;99.90;;;;;;7385973;19;20138;-75
2023/09/14 02:46:54;;;;;;;0.30;0.30;;;19.80;99.90;;;;;;7384779;19;20496;-75
2023/09/14 02:49:20;;;;;;;0.30;0.30;;;19.70;99.90;;;;;;7389161;19;20146;-75
2023/09/14 02:51:46;;;;;;;0.30;0.30;;;19.80;99.90;;;;;;7387508;19;20155;-75
2023/09/14 02:54:11;;;;;;;0.20;0.20;;;19.90;99.90;;;;;;7386636;19;20174;-75
2023/09/14 02:56:37;;;;;;;0.40;0.40;;;20.00;99.90;;;;;;7390504;19;20146;-75
2023/09/14 02:59:03;;;;;;;0.17;0.17;;;20.00;99.90;;;;;;7387143;19;20154;-75
2023/09/14 03:01:29;;;;;;;0.28;0.28;;;20.00;99.90;;;;;;7383576;19;20146;-74
2023/09/14 03:03:55;;;;;;;0.45;0.40;;;19.80;99.90;;;;;;7386518;19;20139;-75
2023/09/14 03:06:21;;;;;;;0.20;0.20;;;19.40;99.90;;;;;;7386491;19;20595;-75
2023/09/14 03:08:47;;;;;;;0.40;0.40;;;19.60;99.90;;;;;;7388829;19;20145;-75
2023/09/14 03:11:12;;;;;;;0.60;0.45;;;19.70;99.90;;;;;;7388817;19;20154;-75
2023/09/14 03:13:40;;;;;;;0.30;0.30;;;19.80;99.90;;;;;;7383372;19;20156;-75
2023/09/14 03:16:06;;;;;;;0.40;0.40;;;19.90;99.90;;;;;;7386707;19;20461;-74
2023/09/14 03:18:32;;;;;;;0.30;0.30;;;19.30;99.90;;;;;;7386304;19;20131;-75
2023/09/14 03:20:57;;;;;;;0.20;0.20;;;19.40;99.90;;;;;;7384746;19;20146;-75
2023/09/14 03:23:23;;;;;;;0.40;0.40;;;19.60;99.90;;;;;;7383248;19;20142;-74
2023/09/14 03:25:50;;;;;;;0.40;0.40;;;19.80;99.90;;;;;;7387818;19;20201;-74
2023/09/14 03:28:16;;;;;;;0.30;0.30;;;19.90;99.90;;;;;;7387736;19;20135;-74
2023/09/14 03:30:43;;;;;;;0.60;0.38;;;19.90;99.90;;;;;;7386048;19;20167;-74
2023/09/14 03:33:09;;;;;;;0.30;0.30;;;20.00;99.90;;;;;;7387381;19;20131;-75
2023/09/14 03:35:35;;;;;;;0.30;0.30;;;20.00;99.90;;;;;;7386205;19;20139;-74
2023/09/14 03:38:01;;;;;;;0.20;0.20;;;19.80;99.90;;;;;;7385639;19;20890;-74
2023/09/14 03:40:27;;;;;;;0.17;0.17;;;19.80;99.90;;;;;;7385358;19;20230;-75
2023/09/14 03:42:52;;;;;;;0.28;0.28;;;19.80;99.90;;;;;;7385653;19;20172;-75
2023/09/14 03:45:18;;;;;;;0.30;0.30;;;19.80;99.90;;;;;;7384812;19;20167;-75
2023/09/14 03:47:44;;;;;;;0.25;0.25;;;19.90;99.90;;;;;;7385809;19;20137;-75
2023/09/14 03:50:10;;;;;;;0.10;0.10;;;19.90;99.90;;;;;;7385632;19;20146;-74
2023/09/14 03:52:37;;;;;;;0.20;0.20;;;20.00;99.90;;;;;;7383876;19;20593;-74
2023/09/14 03:55:03;;;;;;;0.20;0.20;;;20.00;99.90;;;;;;7385224;19;20164;-74
2023/09/14 03:57:29;;;;;;;0.32;0.30;;;19.90;99.90;;;;;;7391535;19;20139;-75
2023/09/14 03:59:56;;;;;;;0.20;0.20;;;20.10;99.90;;;;;;7393162;19;20157;-74
2023/09/14 04:02:23;;;;;;;0.28;0.28;;;20.10;99.90;;;;;;7392886;19;20139;-75
2023/09/14 04:04:48;;;;;;;0.20;0.20;;;20.10;99.90;;;;;;7390569;19;20146;-74
2023/09/14 04:07:14;;;;;;;0.10;0.10;;;20.10;99.90;;;;;;7391379;19;20178;-74
2023/09/14 04:09:41;;;;;;;0.40;0.40;;;20.10;99.90;;;;;;7392929;19;20162;-75
2023/09/14 04:12:08;;;;;;;0.30;0.30;;;20.10;99.90;;;;;;7391970;19;20886;-74
2023/09/14 04:14:33;;;;;;;0.20;0.20;;;20.10;99.90;;;;;;7391847;19;20230;-76
2023/09/14 04:17:00;;;;;;;0.30;0.30;;;19.90;99.90;;;;;;7393704;19;20149;-75
2023/09/14 04:19:28;;;;;;;0.10;0.10;;;19.50;99.90;;;;;;7391758;19;20517;-75
2023/09/14 04:21:53;;;;;;;0.30;0.30;;;19.80;99.90;;;;;;7393199;19;20141;-74
2023/09/14 04:24:20;;;;;;;0.30;0.30;;;20.00;99.90;;;;;;7390636;19;20154;-75
2023/09/14 04:26:46;;;;;;;0.10;0.10;;;20.00;99.90;;;;;;7391288;19;20202;-75
2023/09/14 04:29:13;;;;;;;0.30;0.30;;;20.00;99.90;;;;;;7392325;19;20143;-74
2023/09/14 04:31:40;;;;;;;0.20;0.20;;;20.10;99.90;;;;;;7391478;19;20145;-75
2023/09/14 04:34:06;;;;;;;0.28;0.28;;;20.10;99.90;;;;;;7389934;19;20230;-74
2023/09/14 04:36:33;;;;;;;0.40;0.30;;;20.00;99.90;;;;;;7392569;19;20158;-74
2023/09/14 04:39:03;;;;;;;0.50;0.50;;;19.90;99.90;;;;;;7392553;19;20142;-75
2023/09/14 04:41:30;;;;;;;0.50;0.50;;;19.90;99.90;;;;;;7386831;19;20165;-74
2023/09/14 04:43:57;;;;;;;0.40;0.30;;;19.90;99.90;;;;;;7389389;19;20147;-74
2023/09/14 04:46:22;;;;;;;0.40;0.40;;;20.00;99.90;;;;;;7389709;19;20197;-75
2023/09/14 04:48:49;;;;;;;0.30;0.30;;;20.00;99.90;;;;;;7391482;19;20631;-74
2023/09/14 04:51:14;;;;;;;0.28;0.28;;;20.00;99.90;;;;;;7390473;19;20130;-75
2023/09/14 04:53:40;;;;;;;0.52;0.50;;;20.00;99.90;;;;;;7394026;19;20571;-74
2023/09/14 04:56:06;;;;;;;0.20;0.20;;;20.00;99.90;;;;;;7391817;19;20321;-74
2023/09/14 04:58:32;;;;;;;0.60;0.60;;;20.00;99.90;;;;;;7390418;19;20139;-74
2023/09/14 05:00:58;;;;;;;0.17;0.17;;;20.00;99.90;;;;;;7389962;19;20142;-75
2023/09/14 05:03:24;;;;;;;0.77;0.40;;;19.90;99.90;;;;;;7389718;19;20150;-75
2023/09/14 05:05:54;;;;;;;1.00;0.43;;;19.90;99.90;;;;;;7387643;19;20935;-75
2023/09/14 05:08:21;;;;;;;0.20;0.20;;;19.80;99.90;;;;;;7389646;19;20149;-74
2023/09/14 05:10:50;;;;;;;0.38;0.38;;;19.90;99.90;;;;;;7392686;19;20162;-75
2023/09/14 05:13:18;;;;;;;0.30;0.30;;;19.90;99.90;;;;;;7392293;19;20149;-75
2023/09/14 05:15:45;;;;;;;0.20;0.20;;;19.80;99.90;;;;;;7388792;19;20146;-76
2023/09/14 05:18:10;;;;;;;0.50;0.50;;;19.90;99.90;;;;;;7388448;19;20135;-76
2023/09/14 05:20:36;;;;;;;0.77;0.70;;;19.90;99.90;;;;;;7387624;19;20247;-76
2023/09/14 05:23:03;;;;;;;0.43;0.43;;;19.90;99.90;;;;;;7388449;19;20640;-75
2023/09/14 05:25:28;;;;;;;0.40;0.40;;;19.90;99.90;;;;;;7390635;19;20150;-74
2023/09/14 05:27:54;;;;;;;0.30;0.30;;;19.90;99.90;;;;;;7388732;19;20174;-75
2023/09/14 05:30:22;;;;;;;0.50;0.47;;;19.60;99.90;;;;;;7388059;19;20174;-75
2023/09/14 05:32:49;;;;;;;0.30;0.30;;;19.70;99.90;;;;;;7388910;19;20134;-75
2023/09/14 05:35:15;;;;;;;0.35;0.32;;;19.90;99.90;;;;;;7382125;19;20143;-76
2023/09/14 05:37:40;;;;;;;0.20;0.20;;;19.90;99.90;;;;;;7386011;19;20142;-76
2023/09/14 05:40:09;;;;;;;0.28;0.28;;;20.00;99.90;;;;;;7386302;19;20592;-76
2023/09/14 05:42:37;;;;;;;0.85;0.68;;;20.00;99.90;;;;;;7387238;19;20143;-75
2023/09/14 05:45:04;;;;;;;0.30;0.30;;;19.90;99.90;;;;;;7389062;19;20138;-76
2023/09/14 05:47:30;;;;;;;0.40;0.40;;;19.90;99.90;;;;;;7388286;19;20345;-75
2023/09/14 05:49:55;;;;;;;0.47;0.47;;;19.90;99.90;;;;;;7386424;19;20235;-77
2023/09/14 05:52:21;;;;;;;0.52;0.43;;;19.90;99.90;;;;;;7388599;19;20150;-76
2023/09/14 05:54:50;;;;;;;0.50;0.50;;;19.90;99.90;;;;;;7388897;19;20158;-76
2023/09/14 05:57:16;;;;;;;0.57;0.50;;;19.90;99.90;;;;;;7387761;19;20167;-78
2023/09/14 05:59:42;;;;;;;0.40;0.40;;;19.90;99.90;;;;;;7387900;19;20146;-77
2023/09/14 06:02:08;;;;;;;0.63;0.50;;;19.90;99.90;;;;;;7388129;19;20239;-77
2023/09/14 06:04:35;;;;;;;0.20;0.20;;;19.90;99.90;;;;;;7387111;19;20157;-77
2023/09/14 06:07:01;;;;;;;0.43;0.43;;;20.00;99.90;;;;;;7390499;19;20134;-75
2023/09/14 06:09:30;;;;;;;0.47;0.47;;;19.90;99.90;;;;;;7389134;19;20477;-76
2023/09/14 06:11:55;;;;;;;0.40;0.40;;;19.80;99.90;;;;;;7387648;19;20162;-75
2023/09/14 06:14:21;;;;;;;0.63;0.40;;;19.60;99.90;;;;;;7386393;19;20653;-75
2023/09/14 06:16:47;;;;;;;0.50;0.50;;;19.60;99.90;;;;;;7389009;19;20135;-74
2023/09/14 06:19:13;;;;;;;0.30;0.30;;;19.60;99.90;;;;;;7387021;19;20146;-75
2023/09/14 06:21:38;;;;;;;0.40;0.40;;;19.60;99.90;;;;;;7384056;19;20135;-77
2023/09/14 06:24:05;;;;;;;0.30;0.30;;;19.70;99.90;;;;;;7389969;19;20498;-77
2023/09/14 06:26:30;;;;;;;0.10;0.10;;;19.80;99.90;;;;;;7388607;19;20154;-76
2023/09/14 06:28:56;;;;;;;0.43;0.43;;;19.70;99.90;;;;;;7385980;19;20859;-75
2023/09/14 06:31:23;;;;;;;0.20;0.20;;;19.70;99.90;;;;;;7387814;19;20212;-76
2023/09/14 06:33:49;;;;;;;0.63;0.50;;;19.70;99.90;;;;;;7388255;19;20824;-76
2023/09/14 06:36:19;;;;;;;0.30;0.30;;;19.70;99.90;;;;;;7387426;19;20134;-76
2023/09/14 06:38:45;;;;;;;0.20;0.20;;;19.60;99.90;;;;;;7389637;19;20138;-75
2023/09/14 06:41:15;;;;;;;0.10;0.10;;;19.60;99.90;;;;;;7383630;19;20720;-76
2023/09/14 06:43:45;;;;;;;0.10;0.10;;;19.60;99.90;;;;;;7386030;19;20183;-76
2023/09/14 06:46:11;;;;;;;0.60;0.30;;;19.70;99.90;;;;;;7386420;19;20506;-75
2023/09/14 06:48:38;;;;;;;0.60;0.60;;;19.80;99.90;;;;;;7387528;19;20135;-75
2023/09/14 06:51:05;;;;;;;0.35;0.35;;;19.80;99.90;;;;;;7386072;19;20146;-76
2023/09/14 06:53:34;;;;;;;0.20;0.20;;;19.70;99.90;;;;;;7388550;19;20177;-75
2023/09/14 06:56:13;;;;;;;0.20;0.20;;;19.70;99.90;;;;;;7388189;19;20198;-75
2023/09/14 06:58:39;;;;;;;0.10;0.10;;;19.70;99.90;;;;;;7386694;19;20135;-76
2023/09/14 07:01:05;;;;;;;0.28;0.28;;;19.70;99.90;;;;;;7386130;19;20142;-76
2023/09/14 07:03:32;;;;;;;0.20;0.20;;;19.70;99.90;;;;;;7387388;19;20150;-76
2023/09/14 07:05:58;;;;;;;0.35;0.35;;;19.70;99.90;;;;;;7387212;19;20149;-76
2023/09/14 07:08:24;;;;;;;0.40;0.30;;;19.70;99.90;;;;;;7389254;19;20191;-76
2023/09/14 07:10:50;;;;;;;0.10;0.10;;;19.70;99.90;;;;;;7388041;19;20146;-77
2023/09/14 07:13:17;;;;;;;0.30;0.30;;;19.70;99.90;;;;;;7389400;19;20193;-76
2023/09/14 07:15:43;;;;;;;0.40;0.32;;;19.30;99.90;;;;;;7385421;19;20158;-75
2023/09/14 07:18:11;;;;;;;0.20;0.20;;;19.50;99.90;;;;;;7387579;19;20170;-75
2023/09/14 07:20:37;;;;;;;0.17;0.13;;;19.60;99.90;;;;;;7384968;19;20158;-75
2023/09/14 07:23:02;;;;;;;0.68;0.68;;;19.70;99.90;;;;;;7385970;19;20138;-76
2023/09/14 07:25:28;;;;;;;0.20;0.20;;;19.90;99.90;;;;;;7385947;19;20141;-76
2023/09/14 07:27:54;;;;;;;0.38;0.38;;;20.00;99.90;;;;;;7386716;19;20150;-75
2023/09/14 07:30:20;;;;;;;0.20;0.20;;;20.10;99.90;;;;;;7385874;19;20147;-77
2023/09/14 07:32:45;;;;;;;0.22;0.22;;;20.10;99.90;;;;;;7392831;19;20504;-76
2023/09/14 07:35:12;;;;;;;0.25;0.25;;;20.10;99.90;;;;;;7392957;19;20630;-75
2023/09/14 07:37:38;;;;;;;0.35;0.35;;;19.80;99.90;;;;;;7392716;19;20158;-76
2023/09/14 07:40:05;;;;;;;0.17;0.17;;;19.90;99.90;;;;;;7394716;19;20463;-76
2023/09/14 07:42:30;;;;;;;0.20;0.20;;;20.00;99.90;;;;;;7393480;19;20615;-75
2023/09/14 07:44:56;;;;;;;0.30;0.30;;;20.20;99.90;;;;;;7392338;19;20146;-75
2023/09/14 07:47:28;;;;;;;0.25;0.25;;;20.20;99.90;;;;;;7392810;19;20135;-75
2023/09/14 07:49:54;;;;;;;0.22;0.22;;;20.10;99.90;;;;;;7393655;19;20135;-75
2023/09/14 07:52:19;;;;;;;0.30;0.30;;;20.00;99.90;;;;;;7391418;19;20210;-75
2023/09/14 07:54:45;;;;;;;0.68;0.40;;;19.90;99.90;;;;;;7393230;19;20138;-75
2023/09/14 07:57:11;;;;;;;0.25;0.25;;;20.00;99.90;;;;;;7393993;19;20202;-76
2023/09/14 07:59:37;;;;;;;0.52;0.30;;;20.20;99.90;;;;;;7393657;19;20206;-75
2023/09/14 08:02:02;;;;;;;0.28;0.28;;;20.20;99.90;;;;;;7390885;19;20154;-75
2023/09/14 08:04:28;;;;;;;0.22;0.22;;;20.30;99.90;;;;;;7391046;19;20616;-76
2023/09/14 08:06:54;;;;;;;0.50;0.50;;;20.20;99.90;;;;;;7391471;19;20147;-75
2023/09/14 08:09:20;;;;;;;0.30;0.30;;;20.10;99.90;;;;;;7391236;19;20198;-76
2023/09/14 08:11:46;;;;;;;0.63;0.30;;;20.10;99.90;;;;;;7391867;19;20142;-76
2023/09/14 08:14:12;;;;;;;0.63;0.63;;;20.20;99.90;;;;;;7389083;19;20211;-76
2023/09/14 08:16:37;;;;;;;0.40;0.35;;;20.30;99.90;;;;;;7393615;19;20181;-76
2023/09/14 08:19:03;;;;;;;0.20;0.20;;;20.20;99.90;;;;;;7382682;19;20257;-75
2023/09/14 08:21:29;;;;;;;0.20;0.20;;;19.70;99.90;;;;;;7383970;19;20127;-75
2023/09/14 08:23:54;;;;;;;0.38;0.38;;;20.00;99.90;;;;;;7393348;19;20141;-75
2023/09/14 08:26:20;;;;;;;0.40;0.40;;;20.10;99.90;;;;;;7391133;19;20147;-75
2023/09/14 08:28:46;;;;;;;0.38;0.32;;;20.20;99.90;;;;;;7390003;19;20145;-76
2023/09/14 08:31:12;;;;;;;0.10;0.10;;;20.20;99.90;;;;;;7390843;19;20138;-74
2023/09/14 08:33:38;;;;;;;0.50;0.28;;;20.20;99.90;;;;;;7393228;19;20154;-74
2023/09/14 08:36:03;;;;;;;0.43;0.30;;;20.40;99.90;;;;;;7392567;19;20134;-74
2023/09/14 08:38:32;;;;;;;0.70;0.50;;;20.40;99.90;;;;;;7391209;19;20210;-74
2023/09/14 08:41:03;;;;;;;0.30;0.30;;;20.50;99.90;;;;;;7391259;19;20627;-73
2023/09/14 08:43:30;;;;;;;0.30;0.30;;;20.60;99.90;;;;;;7388916;19;20168;-74
2023/09/14 08:45:58;;;;;;;0.57;0.40;;;20.60;99.90;;;;;;7388964;19;20146;-73
2023/09/14 08:48:28;;;;;;;0.40;0.40;;;20.60;99.90;;;;;;7384624;19;20138;-74
2023/09/14 08:50:55;;;;;;;0.25;0.25;;;20.60;99.90;;;;;;7388150;19;20146;-75
2023/09/14 08:53:23;;;;;;;0.30;0.30;;;20.60;99.90;;;;;;7385679;19;20135;-73
2023/09/14 08:55:50;;;;;;;0.45;0.30;;;20.50;99.90;;;;;;7387339;19;20238;-73
2023/09/14 08:58:17;;;;;;;0.20;0.20;;;20.50;99.90;;;;;;7386759;19;20131;-71
2023/09/14 09:00:43;;;;;;;0.47;0.20;;;20.50;99.90;;;;;;7379761;19;20183;-72
2023/09/14 09:03:08;;;;;;;0.28;0.28;;;20.60;99.90;;;;;;7373796;19;20150;-71
2023/09/14 09:05:34;;;;;;;0.20;0.20;;;20.70;99.90;;;;;;7379287;19;20178;-70
2023/09/14 09:08:00;;;;;;;0.32;0.32;;;20.60;99.90;;;;;;7378294;19;20164;-72
2023/09/14 09:10:28;;;;;;;0.40;0.30;;;20.60;99.90;;;;;;7391012;19;20130;-75
2023/09/14 09:12:55;;;;;;;0.28;0.28;;;20.50;99.90;;;;;;7387721;19;20136;-73
2023/09/14 09:15:24;;;;;;;0.28;0.28;;;20.50;99.90;;;;;;7389387;19;20627;-72
2023/09/14 09:17:53;;;;;;;0.38;0.38;;;20.50;99.90;;;;;;7389443;19;20251;-72
2023/09/14 09:20:23;;;;;;;0.50;0.50;;;20.40;99.90;;;;;;7388273;19;20139;-72
2023/09/14 09:22:55;;;;;;;0.50;0.40;;;20.40;99.90;;;;;;7387993;19;20150;-72
2023/09/14 09:25:22;;;;;;;0.85;0.85;;;20.60;99.90;;;;;;7388752;19;20592;-71
2023/09/14 09:28:00;;;;;;;0.70;0.70;;;20.60;99.90;;;;;;7390279;19;20154;-71
2023/09/14 09:30:30;;;;;;;0.90;0.60;;;20.70;99.90;;;;;;7388426;19;20150;-71
2023/09/14 09:32:56;;;;;;;0.50;0.30;;;20.60;99.90;;;;;;7387971;19;20150;-71
2023/09/14 09:35:24;;;;;;;0.30;0.30;;;20.60;99.90;;;;;;7386296;19;20127;-71
2023/09/14 09:37:50;;;;;;;0.70;0.70;;;20.70;99.90;;;;;;7388632;19;20529;-71
2023/09/14 09:40:27;;;;;;;0.40;0.32;;;20.70;99.90;;;;;;7387839;19;20463;-71
2023/09/14 09:42:54;;;;;;;0.30;0.30;;;20.80;99.90;;;;;;7384766;19;20134;-75
2023/09/14 09:45:25;;;;;;;0.35;0.35;;;20.90;99.90;;;;;;7387694;19;20135;-75
2023/09/14 09:47:51;;;;;;;0.20;0.20;;;20.90;99.90;;;;;;7386887;19;20617;-75
2023/09/14 09:50:21;;;;;;;0.30;0.30;;;20.90;99.90;;;;;;7390528;19;20119;-74
2023/09/14 09:52:48;;;;;;;0.40;0.40;;;20.90;99.90;;;;;;7388478;19;20254;-75
2023/09/14 09:55:19;;;;;;;0.57;0.57;;;20.60;99.90;;;;;;7387796;19;20581;-74
2023/09/14 09:57:51;;;;;;;0.82;0.60;;;20.70;99.90;;;;;;7387248;19;20142;-75
2023/09/14 10:00:19;;;;;;;0.20;0.20;;;20.80;99.90;;;;;;7390229;19;20145;-75
2023/09/14 10:02:47;;;;;;;0.30;0.30;;;20.90;99.90;;;;;;7390174;19;20170;-74
2023/09/14 10:05:12;;;;;;;0.40;0.40;;;20.90;99.90;;;;;;7386743;19;20181;-76
2023/09/14 10:07:42;;;;;;;0.40;0.40;;;20.90;99.90;;;;;;7385757;19;20761;-76
2023/09/14 10:10:10;;;;;;;0.20;0.20;;;21.00;99.90;;;;;;7380702;19;20230;-75
2023/09/14 10:12:40;;;;;;;0.40;0.40;;;20.70;99.90;;;;;;7386571;19;20179;-75
2023/09/14 10:15:08;;;;;;;0.60;0.60;;;20.70;99.90;;;;;;7376269;19;20225;-75
2023/09/14 10:17:35;;;;;;;0.28;0.28;;;20.80;99.90;;;;;;7389466;19;20138;-75
2023/09/14 10:20:05;;;;;;;0.40;0.40;;;20.80;99.90;;;;;;7386330;19;20242;-75
2023/09/14 10:22:32;;;;;;;0.63;0.63;;;20.90;99.90;;;;;;7388117;19;20162;-75
2023/09/14 10:24:58;;;;;;;0.40;0.40;;;21.10;99.90;;;;;;7387602;19;20171;-75
2023/09/14 10:27:28;;;;;;;0.20;0.20;;;21.10;99.90;;;;;;7389068;19;20142;-76
2023/09/14 10:29:56;;;;;;;0.20;0.20;;;21.10;99.90;;;;;;7388126;19;20192;-76
2023/09/14 10:32:23;;;;;;;0.20;0.20;;;21.10;99.90;;;;;;7387378;19;20138;-75
2023/09/14 10:34:50;;;;;;;0.43;0.20;;;21.10;99.90;;;;;;7388166;19;20135;-76
2023/09/14 10:37:19;;;;;;;0.40;0.40;;;21.10;99.90;;;;;;7388272;19;20162;-75
2023/09/14 10:39:45;;;;;;;0.20;0.20;;;21.20;99.90;;;;;;7386612;19;20602;-77
2023/09/14 10:42:11;;;;;;;0.20;0.20;;;21.10;99.90;;;;;;7386901;19;20153;-75
2023/09/14 10:44:37;;;;;;;0.22;0.22;;;21.20;99.90;;;;;;7387182;19;20158;-76
2023/09/14 10:47:05;;;;;;;0.30;0.30;;;21.30;99.90;;;;;;7387371;19;20164;-75
2023/09/14 10:49:35;;;;;;;0.30;0.30;;;21.30;99.90;;;;;;7387730;19;20661;-76
2023/09/14 10:52:02;;;;;;;0.30;0.30;;;21.30;99.90;;;;;;7388330;19;20163;-75
2023/09/14 10:54:31;;;;;;;0.32;0.32;;;21.40;99.90;;;;;;7385629;19;20465;-76
2023/09/14 10:56:58;;;;;;;0.20;0.20;;;21.50;99.90;;;;;;7387514;19;20150;-76
2023/09/14 10:59:47;;;;;;;0.30;0.30;;;21.40;99.90;;;;;;7388170;19;20150;-76
2023/09/14 11:02:39;;;;;;;0.25;0.25;;;21.40;99.90;;;;;;7387131;19;20190;-76
2023/09/14 11:05:17;;;;;;;0.32;0.32;;;21.40;99.90;;;;;;7384550;19;20185;-76
2023/09/14 11:07:48;;;;;;;0.40;0.40;;;21.10;99.90;;;;;;7385964;19;20130;-75
2023/09/14 11:10:18;;;;;;;0.50;0.40;;;21.40;99.90;;;;;;7389786;19;20145;-75
2023/09/14 11:12:44;;;;;;;0.40;0.40;;;21.50;99.90;;;;;;7388582;19;20138;-76
2023/09/14 11:15:14;;;;;;;0.30;0.30;;;21.20;99.90;;;;;;7386542;19;20515;-75
2023/09/14 11:17:45;;;;;;;1.10;0.45;;;21.00;99.90;;;;;;7386661;19;20138;-75
2023/09/14 11:20:20;;;;;;;0.20;0.20;;;21.00;99.90;;;;;;7386021;19;20138;-76
2023/09/14 11:22:46;;;;;;;0.20;0.20;;;21.30;99.90;;;;;;7388684;19;20579;-76
2023/09/14 11:25:32;;;;;;;0.20;0.20;;;21.70;99.90;;;;;;7385362;19;20173;-76
2023/09/14 11:27:58;;;;;;;0.45;0.45;;;21.90;99.90;;;;;;7388007;19;20142;-76
2023/09/14 11:31:03;;;;;;;0.20;0.20;;;22.00;99.90;;;;;;7386043;19;20180;-79
2023/09/14 11:33:31;;;;;;;0.25;0.25;;;22.10;99.90;;;;;;7386380;19;20134;-75
2023/09/14 11:35:57;;;;;;;0.38;0.38;;;21.90;99.90;;;;;;7388211;19;20146;-75
2023/09/14 11:38:25;;;;;;;0.20;0.20;;;21.90;99.90;;;;;;7386358;19;20145;-76
2023/09/14 11:40:53;;;;;;;0.28;0.28;;;21.90;99.90;;;;;;7384179;19;20222;-74
2023/09/14 11:43:26;;;;;;;0.28;0.28;;;21.80;99.90;;;;;;7387908;19;20134;-75
2023/09/14 11:45:57;;;;;;;0.60;0.43;;;22.10;99.90;;;;;;7386630;19;20142;-74
2023/09/14 11:48:27;;;;;;;0.30;0.30;;;22.40;99.90;;;;;;7385057;19;20159;-75
2023/09/14 11:50:53;;;;;;;0.30;0.30;;;22.40;99.90;;;;;;7385230;19;20154;-75
2023/09/14 11:53:21;;;;;;;0.20;0.20;;;22.20;99.90;;;;;;7384993;19;20154;-75
2023/09/14 11:55:51;;;;;;;0.30;0.30;;;22.40;99.90;;;;;;7382989;19;20131;-75
2023/09/14 11:58:21;;;;;;;0.17;0.17;;;22.40;99.90;;;;;;7385779;19;20164;-74
2023/09/14 12:00:50;;;;;;;0.20;0.20;;;22.50;99.90;;;;;;7383355;19;20131;-75
2023/09/14 12:03:16;;;;;;;0.38;0.38;;;22.60;99.90;;;;;;7383417;19;20139;-75
2023/09/14 12:05:41;;;;;;;0.20;0.20;;;22.70;99.90;;;;;;7383823;19;20211;-74
2023/09/14 12:08:12;;;;;;;0.20;0.20;;;22.80;99.90;;;;;;7388070;19;20146;-75
2023/09/14 12:10:39;;;;;;;0.50;0.50;;;22.80;99.90;;;;;;7385901;19;20160;-76
2023/09/14 12:13:17;;;;;;;0.22;0.22;;;23.00;99.90;;;;;;7384494;19;20135;-75
2023/09/14 12:15:45;;;;;;;0.20;0.20;;;23.00;99.90;;;;;;7384990;19;20146;-76
2023/09/14 12:18:13;;;;;;;0.40;0.40;;;23.10;99.90;;;;;;7388840;19;20616;-74
2023/09/14 12:20:40;;;;;;;0.30;0.30;;;23.00;99.90;;;;;;7389948;19;20142;-74
2023/09/14 12:23:07;;;;;;;0.20;0.20;;;22.90;99.90;;;;;;7390223;19;20169;-72
2023/09/14 12:25:34;;;;;;;0.30;0.30;;;22.90;99.90;;;;;;7391110;19;20261;-75
2023/09/14 12:28:03;;;;;;;0.30;0.20;;;22.70;99.90;;;;;;7393859;19;20139;-74
2023/09/14 12:30:29;;;;;;;0.30;0.30;;;22.70;99.90;;;;;;7389912;19;20138;-74
2023/09/14 12:32:55;;;;;;;0.45;0.40;;;22.70;99.90;;;;;;7390269;19;20161;-75
2023/09/14 12:35:21;;;;;;;0.25;0.25;;;22.40;99.90;;;;;;7392262;19;20146;-75
2023/09/14 12:37:47;;;;;;;0.20;0.20;;;22.60;99.90;;;;;;7389941;19;20482;-74
2023/09/14 12:40:14;;;;;;;0.30;0.30;;;22.80;99.90;;;;;;7389276;19;20487;-75
2023/09/14 12:42:42;;;;;;;0.30;0.30;;;22.90;99.90;;;;;;7391102;19;20569;-75
2023/09/14 12:45:16;;;;;;;0.30;0.30;;;23.00;99.90;;;;;;7390423;19;20146;-75
2023/09/14 12:47:45;;;;;;;0.28;0.28;;;22.90;99.90;;;;;;7392345;19;20134;-75
2023/09/14 12:50:18;;;;;;;0.25;0.20;;;23.10;99.90;;;;;;7392793;19;20479;-75